Lotheni — ZR8530 — position and weather

sailwx.info

Track history (hours):
 
Tides and Currents Weather Stations Pressure Air Temp Water Temp Dewpoint Dewpoint Depression Visibility Wind Speed Wind Dir Waves Ship Positions

Lotheni

Last reported at 2016-Feb-10 04:29 UTC. Time now 2016-Feb-10 04:47 UTC.
Position S 29°52' E 031°02'.

Type: Tug. MMSI: 601135800.

Date/timePositionNaut miles runAvg speedWind from/ knotsBaromVisibWave heightAir tempDewpointWater temp
2016-Feb-10 04:29S 29°52' E 031°02'0 0.0
2016-Feb-10 03:23S 29°52' E 031°02'1 0.9
2016-Feb-10 02:33S 29°52' E 031°02'1 0.7
2016-Feb-10 01:28S 29°53' E 031°03'1 0.7
2016-Feb-10 00:29S 29°53' E 031°03'0 0.3
2016-Feb-09 23:34S 29°53' E 031°03'2 1.0
2016-Feb-09 21:11S 29°53' E 031°00'2 2.6
2016-Feb-09 20:33S 29°52' E 031°02'1 0.9
2016-Feb-09 19:33S 29°52' E 031°03'1 1.1
2016-Feb-09 18:33S 29°53' E 031°02'  
2016-Feb-06 02:13S 29°52' E 031°02'0 0.0
2016-Feb-06 01:31S 29°52' E 031°02'0 0.0
2016-Feb-06 00:19S 29°52' E 031°02'0 0.0
2016-Feb-05 23:31S 29°52' E 031°02'0 0.0
2016-Feb-05 22:25S 29°52' E 031°02'0 0.0
2016-Feb-05 21:25S 29°52' E 031°02'0 0.0
2016-Feb-05 19:25S 29°52' E 031°02'0 0.0
2016-Feb-05 17:31S 29°52' E 031°02'0 0.0
2016-Feb-05 15:16S 29°52' E 031°02'1 1.0
2016-Feb-05 14:33S 29°52' E 031°02'1 0.4
2016-Feb-05 12:30S 29°52' E 031°02'0 0.0
2016-Feb-05 11:30S 29°52' E 031°02'0 0.0
2016-Feb-05 10:30S 29°52' E 031°02'0 0.0
2016-Feb-05 09:30S 29°52' E 031°02'0 0.0
2016-Feb-05 08:06S 29°52' E 031°02'1 1.7
2016-Feb-05 07:30S 29°53' E 031°01'2 1.6
2016-Feb-05 06:29S 29°53' E 031°03'2 1.6
2016-Feb-05 05:29S 29°53' E 031°01'1 1.0
2016-Feb-05 04:32S 29°52' E 031°02'0 0.0
2016-Feb-03 10:19S 29°52' E 031°02'0 0.0
2016-Feb-03 09:31S 29°52' E 031°02'0 0.0
2016-Feb-03 08:31S 29°52' E 031°02'0 0.0
2016-Feb-03 07:31S 29°52' E 031°02'0 0.0
2016-Feb-03 06:31S 29°52' E 031°02'1 0.7
2016-Feb-03 05:32S 29°52' E 031°02'1 0.7
2016-Feb-03 04:31S 29°52' E 031°02'0 0.0
2016-Feb-03 03:31S 29°52' E 031°02'1 1.0
2016-Feb-03 02:32S 29°53' E 031°02'1 1.0
2016-Feb-03 01:31S 29°52' E 031°02'0 0.0
2016-Feb-03 00:31S 29°52' E 031°02'0 0.0
2016-Feb-02 23:31S 29°52' E 031°02'0 0.0
2016-Feb-02 22:31S 29°52' E 031°02'0 0.0
2016-Feb-02 21:31S 29°52' E 031°02'1 0.5
2016-Feb-02 20:24S 29°52' E 031°02'1 0.8
2016-Feb-02 19:31S 29°53' E 031°03'1 1.1
2016-Feb-02 18:25S 29°52' E 031°02'0 0.0
2016-Feb-02 17:22S 29°52' E 031°02'0 0.0
2016-Feb-02 16:16S 29°52' E 031°02'0 0.0
2016-Feb-02 15:31S 29°52' E 031°02'1 1.2
2016-Feb-02 14:31S 29°53' E 031°01'1 1.4
2016-Feb-02 13:33S 29°52' E 031°03'2 1.9
2016-Feb-02 12:31S 29°52' E 031°01'1 1.4
2016-Feb-02 11:30S 29°52' E 031°02'0 0.0
2016-Feb-02 10:30S 29°52' E 031°02'0 0.0
2016-Feb-02 09:22S 29°52' E 031°02'0 0.1
2016-Feb-02 08:32S 29°52' E 031°02'0 0.0
2016-Feb-02 07:32S 29°52' E 031°02'0 0.0
2016-Feb-02 06:29S 29°52' E 031°02'0 0.0
2016-Jan-31 19:18S 29°52' E 031°02'0 0.0
2016-Jan-31 18:33S 29°52' E 031°02'0 0.0
2016-Jan-31 17:33S 29°52' E 031°02'0 0.0
2016-Jan-31 16:33S 29°52' E 031°02'0 0.0
2016-Jan-31 15:33S 29°52' E 031°02'0 0.0
2016-Jan-31 14:33S 29°52' E 031°02'0 0.0
2016-Jan-31 13:33S 29°52' E 031°02'0 0.0
2016-Jan-31 12:33S 29°52' E 031°02'0 0.0
2016-Jan-31 11:33S 29°52' E 031°02'0 0.0
2016-Jan-31 10:33S 29°52' E 031°02'0 0.0
2016-Jan-31 09:33S 29°52' E 031°02'1 1.5
2016-Jan-31 08:33S 29°53' E 031°00'1 1.3
2016-Jan-31 07:23S 29°52' E 031°02'0 0.0
2016-Jan-31 06:32S 29°52' E 031°02'1 0.9
2016-Jan-31 05:31S 29°53' E 031°01'1 1.0
2016-Jan-31 04:32S 29°52' E 031°02'  
Track history (hours):
 
Tides and Currents Weather Stations Pressure Air Temp Water Temp Dewpoint Dewpoint Depression Visibility Wind Speed Wind Dir Waves Ship Positions

Lotheni

Last reported at 2016-Feb-10 04:29 UTC. Time now 2016-Feb-10 04:47 UTC.
Position S 29°52' E 031°02'.

Type: Tug. MMSI: 601135800.

Date/timePositionNaut miles runAvg speedWind from/ knotsBaromVisibWave heightAir tempDewpointWater temp
2016-Feb-10 04:29S 29°52' E 031°02'0 0.0
2016-Feb-10 03:23S 29°52' E 031°02'1 0.9
2016-Feb-10 02:33S 29°52' E 031°02'1 0.7
2016-Feb-10 01:28S 29°53' E 031°03'1 0.7
2016-Feb-10 00:29S 29°53' E 031°03'0 0.3
2016-Feb-09 23:34S 29°53' E 031°03'2 1.0
2016-Feb-09 21:11S 29°53' E 031°00'2 2.6
2016-Feb-09 20:33S 29°52' E 031°02'1 0.9
2016-Feb-09 19:33S 29°52' E 031°03'1 1.1
2016-Feb-09 18:33S 29°53' E 031°02'  
2016-Feb-06 02:13S 29°52' E 031°02'0 0.0
2016-Feb-06 01:31S 29°52' E 031°02'0 0.0
2016-Feb-06 00:19S 29°52' E 031°02'0 0.0
2016-Feb-05 23:31S 29°52' E 031°02'0 0.0
2016-Feb-05 22:25S 29°52' E 031°02'0 0.0
2016-Feb-05 21:25S 29°52' E 031°02'0 0.0
2016-Feb-05 19:25S 29°52' E 031°02'0 0.0
2016-Feb-05 17:31S 29°52' E 031°02'0 0.0
2016-Feb-05 15:16S 29°52' E 031°02'1 1.0
2016-Feb-05 14:33S 29°52' E 031°02'1 0.4
2016-Feb-05 12:30S 29°52' E 031°02'0 0.0
2016-Feb-05 11:30S 29°52' E 031°02'0 0.0
2016-Feb-05 10:30S 29°52' E 031°02'0 0.0
2016-Feb-05 09:30S 29°52' E 031°02'0 0.0
2016-Feb-05 08:06S 29°52' E 031°02'1 1.7
2016-Feb-05 07:30S 29°53' E 031°01'2 1.6
2016-Feb-05 06:29S 29°53' E 031°03'2 1.6
2016-Feb-05 05:29S 29°53' E 031°01'1 1.0
2016-Feb-05 04:32S 29°52' E 031°02'0 0.0
2016-Feb-03 10:19S 29°52' E 031°02'0 0.0
2016-Feb-03 09:31S 29°52' E 031°02'0 0.0
2016-Feb-03 08:31S 29°52' E 031°02'0 0.0
2016-Feb-03 07:31S 29°52' E 031°02'0 0.0
2016-Feb-03 06:31S 29°52' E 031°02'1 0.7
2016-Feb-03 05:32S 29°52' E 031°02'1 0.7
2016-Feb-03 04:31S 29°52' E 031°02'0 0.0
2016-Feb-03 03:31S 29°52' E 031°02'1 1.0
2016-Feb-03 02:32S 29°53' E 031°02'1 1.0
2016-Feb-03 01:31S 29°52' E 031°02'0 0.0
2016-Feb-03 00:31S 29°52' E 031°02'0 0.0
2016-Feb-02 23:31S 29°52' E 031°02'0 0.0
2016-Feb-02 22:31S 29°52' E 031°02'0 0.0
2016-Feb-02 21:31S 29°52' E 031°02'1 0.5
2016-Feb-02 20:24S 29°52' E 031°02'1 0.8
2016-Feb-02 19:31S 29°53' E 031°03'1 1.1
2016-Feb-02 18:25S 29°52' E 031°02'0 0.0
2016-Feb-02 17:22S 29°52' E 031°02'0 0.0
2016-Feb-02 16:16S 29°52' E 031°02'0 0.0
2016-Feb-02 15:31S 29°52' E 031°02'1 1.2
2016-Feb-02 14:31S 29°53' E 031°01'1 1.4
2016-Feb-02 13:33S 29°52' E 031°03'2 1.9
2016-Feb-02 12:31S 29°52' E 031°01'1 1.4
2016-Feb-02 11:30S 29°52' E 031°02'0 0.0
2016-Feb-02 10:30S 29°52' E 031°02'0 0.0
2016-Feb-02 09:22S 29°52' E 031°02'0 0.1
2016-Feb-02 08:32S 29°52' E 031°02'0 0.0
2016-Feb-02 07:32S 29°52' E 031°02'0 0.0
2016-Feb-02 06:29S 29°52' E 031°02'0 0.0
2016-Jan-31 19:18S 29°52' E 031°02'0 0.0
2016-Jan-31 18:33S 29°52' E 031°02'0 0.0
2016-Jan-31 17:33S 29°52' E 031°02'0 0.0
2016-Jan-31 16:33S 29°52' E 031°02'0 0.0
2016-Jan-31 15:33S 29°52' E 031°02'0 0.0
2016-Jan-31 14:33S 29°52' E 031°02'0 0.0
2016-Jan-31 13:33S 29°52' E 031°02'0 0.0
2016-Jan-31 12:33S 29°52' E 031°02'0 0.0
2016-Jan-31 11:33S 29°52' E 031°02'0 0.0
2016-Jan-31 10:33S 29°52' E 031°02'0 0.0
2016-Jan-31 09:33S 29°52' E 031°02'1 1.5
2016-Jan-31 08:33S 29°53' E 031°00'1 1.3
2016-Jan-31 07:23S 29°52' E 031°02'0 0.0
2016-Jan-31 06:32S 29°52' E 031°02'1 0.9
2016-Jan-31 05:31S 29°53' E 031°01'1 1.0
2016-Jan-31 04:32S 29°52' E 031°02'  

Dump ship's entire track history